createdAt,value
2017-09-22T00:00:40.778Z,991.83
2017-09-22T00:01:38.008Z,991.78
2017-09-22T00:02:35.273Z,991.82
2017-09-22T00:03:32.509Z,991.79
2017-09-22T00:04:31.815Z,991.85
2017-09-22T00:05:29.068Z,991.91
2017-09-22T00:06:26.362Z,991.85
2017-09-22T00:07:23.601Z,991.88
2017-09-22T00:08:20.872Z,991.78
2017-09-22T00:09:20.210Z,991.84
2017-09-22T00:10:17.534Z,991.84
2017-09-22T00:11:14.794Z,991.92
2017-09-22T00:12:12.099Z,991.88
2017-09-22T00:13:09.402Z,991.87
2017-09-22T00:14:08.725Z,991.84
2017-09-22T00:15:06.009Z,991.91
2017-09-22T00:16:03.282Z,991.85
2017-09-22T00:17:02.590Z,991.87
2017-09-22T00:17:59.861Z,991.84
2017-09-22T00:18:57.098Z,991.89
2017-09-22T00:19:54.363Z,991.85
2017-09-22T00:20:51.668Z,991.89
2017-09-22T00:21:48.948Z,991.92
2017-09-22T00:22:46.169Z,991.89
2017-09-22T00:23:43.485Z,991.87
2017-09-22T00:24:40.747Z,991.95
2017-09-22T00:25:38.054Z,991.93
2017-09-22T00:26:35.298Z,991.88
2017-09-22T00:27:32.578Z,991.90
2017-09-22T00:28:29.842Z,991.89
2017-09-22T00:29:27.150Z,991.88
2017-09-22T00:30:24.426Z,991.87
2017-09-22T00:31:21.710Z,991.93
2017-09-22T00:32:18.969Z,991.85
2017-09-22T00:33:16.221Z,991.84
2017-09-22T00:34:13.469Z,991.89
2017-09-22T00:35:10.850Z,991.93
2017-09-22T00:36:10.205Z,991.84
2017-09-22T00:37:07.441Z,991.91
2017-09-22T00:38:04.740Z,991.90
2017-09-22T00:39:02.022Z,991.91
2017-09-22T00:39:59.335Z,991.90
2017-09-22T00:40:56.700Z,991.85
2017-09-22T00:41:53.973Z,991.85
2017-09-22T00:42:53.289Z,991.87
2017-09-22T00:43:50.523Z,991.74
2017-09-22T00:44:47.810Z,991.91
2017-09-22T00:45:45.173Z,991.90
2017-09-22T00:46:42.513Z,991.86
2017-09-22T00:47:39.823Z,991.85
2017-09-22T00:48:37.098Z,991.85
2017-09-22T00:49:34.386Z,991.89
2017-09-22T00:50:31.631Z,991.81
2017-09-22T00:51:28.933Z,991.86
2017-09-22T00:52:26.347Z,991.94
2017-09-22T00:53:23.594Z,991.91
2017-09-22T00:54:20.916Z,991.94
2017-09-22T00:55:18.185Z,991.88
2017-09-22T00:56:15.488Z,991.86
2017-09-22T00:57:12.725Z,991.92
2017-09-22T00:58:09.980Z,991.93
2017-09-22T00:59:07.290Z,991.86
2017-09-22T01:00:04.573Z,991.79
2017-09-22T01:01:01.836Z,991.88
2017-09-22T01:01:59.130Z,991.86
2017-09-22T01:02:56.340Z,991.85
2017-09-22T01:03:53.752Z,991.79
2017-09-22T01:04:50.986Z,991.87
2017-09-22T01:05:48.267Z,991.83
2017-09-22T01:06:45.538Z,991.86
2017-09-22T01:07:42.912Z,991.82
2017-09-22T01:08:40.146Z,991.86
2017-09-22T01:09:37.414Z,991.84
2017-09-22T01:10:34.663Z,991.83
2017-09-22T01:11:31.938Z,991.82
2017-09-22T01:12:29.182Z,991.76
2017-09-22T01:13:26.457Z,991.79
2017-09-22T01:14:23.722Z,991.77
2017-09-22T01:15:21.127Z,991.76
2017-09-22T01:16:18.374Z,991.74
2017-09-22T01:17:17.772Z,991.81
2017-09-22T01:18:15.003Z,991.70
2017-09-22T01:19:12.274Z,991.70
2017-09-22T01:20:09.574Z,991.71
2017-09-22T01:21:06.894Z,991.72
2017-09-22T01:22:04.176Z,991.68
2017-09-22T01:23:01.558Z,991.75
2017-09-22T01:23:58.801Z,991.74
2017-09-22T01:24:56.118Z,991.71
2017-09-22T01:25:53.368Z,991.70
2017-09-22T01:26:50.686Z,991.68
2017-09-22T01:27:47.962Z,991.65
2017-09-22T01:28:47.273Z,991.71
2017-09-22T01:29:44.507Z,991.73
2017-09-22T01:30:41.778Z,991.72
2017-09-22T01:31:39.058Z,991.67
2017-09-22T01:32:36.361Z,991.67
2017-09-22T01:33:33.627Z,991.57
2017-09-22T01:34:30.898Z,991.67
2017-09-22T01:35:28.163Z,991.67
2017-09-22T01:36:25.437Z,991.68
2017-09-22T01:37:22.702Z,991.67
2017-09-22T01:38:19.972Z,991.64
2017-09-22T01:39:17.229Z,991.64
2017-09-22T01:40:14.550Z,991.66
2017-09-22T01:41:11.782Z,991.59
2017-09-22T01:42:09.058Z,991.60
2017-09-22T01:43:06.297Z,991.63
2017-09-22T01:44:03.596Z,991.68
2017-09-22T01:45:00.842Z,991.57
2017-09-22T01:45:58.109Z,991.62
2017-09-22T01:46:55.366Z,991.55
2017-09-22T01:47:52.658Z,991.65
2017-09-22T01:48:49.924Z,991.60
2017-09-22T01:49:49.245Z,991.61
2017-09-22T01:50:46.491Z,991.58
2017-09-22T01:51:43.794Z,991.55
2017-09-22T01:52:41.053Z,991.57
2017-09-22T01:53:38.314Z,991.53
2017-09-22T01:54:35.558Z,991.53
2017-09-22T01:55:32.867Z,991.55
2017-09-22T01:56:30.082Z,991.56
2017-09-22T01:57:27.383Z,991.55
2017-09-22T01:58:24.650Z,991.57
2017-09-22T01:59:21.914Z,991.59
2017-09-22T02:00:19.145Z,991.59
2017-09-22T02:01:16.410Z,991.61
2017-09-22T02:02:13.642Z,991.53
2017-09-22T02:03:10.928Z,991.57
2017-09-22T02:04:08.160Z,991.58
2017-09-22T02:05:05.446Z,991.55
2017-09-22T02:06:02.682Z,991.60
2017-09-22T02:06:59.951Z,991.63
2017-09-22T02:07:57.230Z,991.52
2017-09-22T02:08:54.506Z,991.60
2017-09-22T02:09:51.762Z,991.61
2017-09-22T02:10:49.059Z,991.59
2017-09-22T02:11:46.322Z,991.52
2017-09-22T02:12:48.772Z,991.51
2017-09-22T02:13:51.238Z,991.53
2017-09-22T02:14:53.623Z,991.53
2017-09-22T02:15:50.915Z,991.49
2017-09-22T02:16:53.268Z,991.58
2017-09-22T02:17:55.771Z,991.51
2017-09-22T02:18:53.076Z,991.46
2017-09-22T02:19:50.321Z,991.51
2017-09-22T02:20:47.649Z,991.50
2017-09-22T02:21:44.896Z,991.50
2017-09-22T02:22:42.241Z,991.50
2017-09-22T02:23:39.531Z,991.47
2017-09-22T02:24:36.868Z,991.49
2017-09-22T02:25:34.123Z,991.42
2017-09-22T02:26:31.410Z,991.36
2017-09-22T02:27:28.679Z,991.40
2017-09-22T02:28:25.976Z,991.44
2017-09-22T02:29:23.207Z,991.47
2017-09-22T02:30:20.457Z,991.47
2017-09-22T02:31:17.690Z,991.41
2017-09-22T02:32:14.951Z,991.42
2017-09-22T02:33:12.208Z,991.38
2017-09-22T02:34:09.505Z,991.44
2017-09-22T02:35:06.774Z,991.39
2017-09-22T02:36:04.138Z,991.48
2017-09-22T02:37:01.374Z,991.45
2017-09-22T02:37:58.642Z,991.40
2017-09-22T02:38:55.934Z,991.41
2017-09-22T02:39:53.205Z,991.41
2017-09-22T02:40:50.455Z,991.37
2017-09-22T02:41:47.725Z,991.40
2017-09-22T02:42:44.970Z,991.39
2017-09-22T02:43:42.262Z,991.36
2017-09-22T02:44:39.569Z,991.44
2017-09-22T02:45:36.838Z,991.50
2017-09-22T02:46:34.129Z,991.51
2017-09-22T02:47:31.423Z,991.46
2017-09-22T02:48:28.658Z,991.49
2017-09-22T02:49:25.973Z,991.48
2017-09-22T02:50:23.201Z,991.56
2017-09-22T02:51:20.482Z,991.53
2017-09-22T02:52:17.726Z,991.57
2017-09-22T02:53:14.995Z,991.58
2017-09-22T02:54:12.259Z,991.60
2017-09-22T02:55:09.553Z,991.62
2017-09-22T02:56:06.798Z,991.60
2017-09-22T02:57:04.108Z,991.59
2017-09-22T02:58:01.350Z,991.57
2017-09-22T02:58:58.631Z,991.55
2017-09-22T02:59:55.886Z,991.61
2017-09-22T03:00:53.149Z,991.63
2017-09-22T03:01:50.390Z,991.62
2017-09-22T03:02:47.665Z,991.57
2017-09-22T03:03:44.910Z,991.65
2017-09-22T03:04:42.195Z,991.60
2017-09-22T03:05:39.460Z,991.58
2017-09-22T03:06:36.745Z,991.55
2017-09-22T03:07:33.994Z,991.51
2017-09-22T03:08:31.258Z,991.48
2017-09-22T03:09:28.549Z,991.55
2017-09-22T03:10:25.869Z,991.52
2017-09-22T03:11:23.090Z,991.59
2017-09-22T03:12:20.381Z,991.57
2017-09-22T03:13:17.625Z,991.54
2017-09-22T03:14:14.913Z,991.56
2017-09-22T03:15:12.213Z,991.58
2017-09-22T03:16:09.473Z,991.49
2017-09-22T03:17:06.718Z,991.53
2017-09-22T03:18:03.977Z,991.54
2017-09-22T03:19:01.235Z,991.55
2017-09-22T03:19:58.523Z,991.49
2017-09-22T03:20:55.761Z,991.45
2017-09-22T03:21:53.008Z,991.48
2017-09-22T03:22:50.265Z,991.44
2017-09-22T03:23:47.509Z,991.49
2017-09-22T03:24:44.833Z,991.48
2017-09-22T03:25:42.093Z,991.57
2017-09-22T03:26:39.315Z,991.48
2017-09-22T03:27:36.565Z,991.52
2017-09-22T03:28:33.807Z,991.56
2017-09-22T03:29:31.066Z,991.56
2017-09-22T03:30:28.318Z,991.53
2017-09-22T03:31:25.566Z,991.46
2017-09-22T03:32:22.813Z,991.48
2017-09-22T03:33:20.107Z,991.49
2017-09-22T03:34:17.324Z,991.56
2017-09-22T03:35:14.617Z,991.49
2017-09-22T03:36:11.857Z,991.52
2017-09-22T03:37:09.151Z,991.51
2017-09-22T03:38:06.415Z,991.59
2017-09-22T03:39:03.685Z,991.57
2017-09-22T03:40:00.906Z,991.53
2017-09-22T03:40:58.169Z,991.58
2017-09-22T03:41:55.468Z,991.55
2017-09-22T03:42:52.773Z,991.52
2017-09-22T03:43:49.995Z,991.56
2017-09-22T03:44:47.245Z,991.63
2017-09-22T03:45:44.668Z,991.59
2017-09-22T03:46:42.021Z,991.55
2017-09-22T03:47:39.274Z,991.63
2017-09-22T03:48:36.540Z,991.65
2017-09-22T03:49:33.856Z,991.60
2017-09-22T03:50:31.242Z,991.63
2017-09-22T03:51:28.489Z,991.60
2017-09-22T03:52:25.782Z,991.67
2017-09-22T03:53:23.025Z,991.63
2017-09-22T03:54:20.287Z,991.61
2017-09-22T03:55:17.525Z,991.58
2017-09-22T03:56:14.834Z,991.65
2017-09-22T03:57:12.090Z,991.66
2017-09-22T03:58:09.341Z,991.63
2017-09-22T03:59:06.583Z,991.62
2017-09-22T04:00:03.865Z,991.63
2017-09-22T04:01:01.130Z,991.66
2017-09-22T04:01:58.497Z,991.63
2017-09-22T04:02:55.761Z,991.63
2017-09-22T04:03:52.994Z,991.68
2017-09-22T04:04:50.230Z,991.62
2017-09-22T04:05:47.517Z,991.65
2017-09-22T04:06:44.761Z,991.57
2017-09-22T04:07:42.026Z,991.60
2017-09-22T04:08:39.241Z,991.62
2017-09-22T04:09:36.529Z,991.66
2017-09-22T04:10:33.773Z,991.65
2017-09-22T04:11:31.055Z,991.60
2017-09-22T04:12:28.314Z,991.66
2017-09-22T04:13:25.618Z,991.69
2017-09-22T04:14:22.853Z,991.65
2017-09-22T04:15:20.106Z,991.65
2017-09-22T04:16:17.354Z,991.65
2017-09-22T04:17:14.739Z,991.67
2017-09-22T04:18:12.004Z,991.68
2017-09-22T04:19:09.308Z,991.62
2017-09-22T04:20:06.545Z,991.54
2017-09-22T04:21:03.856Z,991.63
2017-09-22T04:22:01.107Z,991.62
2017-09-22T04:22:58.506Z,991.51
2017-09-22T04:23:55.740Z,991.66
2017-09-22T04:24:52.974Z,991.71
2017-09-22T04:25:50.273Z,991.64
2017-09-22T04:26:47.562Z,991.67
2017-09-22T04:27:46.986Z,991.66
2017-09-22T04:28:44.270Z,991.63
2017-09-22T04:29:41.522Z,991.66
2017-09-22T04:30:38.778Z,991.65
2017-09-22T04:31:36.069Z,991.66
2017-09-22T04:32:33.348Z,991.64
2017-09-22T04:33:30.601Z,991.69
2017-09-22T04:34:27.821Z,991.62
2017-09-22T04:35:25.102Z,991.60
2017-09-22T04:36:22.405Z,991.60
2017-09-22T04:37:19.669Z,991.56
2017-09-22T04:38:16.890Z,991.61
2017-09-22T04:39:14.149Z,991.63
2017-09-22T04:40:11.389Z,991.60
2017-09-22T04:41:08.635Z,991.58
2017-09-22T04:42:05.931Z,991.65
2017-09-22T04:43:03.213Z,991.67
2017-09-22T04:44:00.459Z,991.69
2017-09-22T04:44:57.842Z,991.67
2017-09-22T04:45:55.087Z,991.64
2017-09-22T04:46:52.394Z,991.72
2017-09-22T04:47:49.615Z,991.69
2017-09-22T04:48:46.873Z,991.76
2017-09-22T04:49:44.107Z,991.79
2017-09-22T04:50:41.361Z,991.73
2017-09-22T04:51:38.663Z,991.79
2017-09-22T04:52:35.941Z,991.79
2017-09-22T04:53:33.165Z,991.76
2017-09-22T04:54:30.466Z,991.86
2017-09-22T04:55:27.702Z,991.81
2017-09-22T04:56:24.971Z,991.87
2017-09-22T04:57:22.237Z,991.82
2017-09-22T04:58:19.506Z,991.81
2017-09-22T04:59:16.733Z,991.82
2017-09-22T05:00:14.009Z,991.84
2017-09-22T05:01:11.269Z,991.84
2017-09-22T05:02:08.603Z,991.79
2017-09-22T05:03:05.831Z,991.81
2017-09-22T05:04:03.086Z,991.83
2017-09-22T05:05:00.334Z,991.84
2017-09-22T05:05:57.585Z,991.85
2017-09-22T05:06:54.813Z,991.84
2017-09-22T05:07:52.105Z,991.89
2017-09-22T05:08:49.357Z,991.80
2017-09-22T05:09:46.622Z,991.83
2017-09-22T05:10:43.890Z,991.80
2017-09-22T05:11:41.165Z,991.82
2017-09-22T05:12:38.446Z,991.81
2017-09-22T05:13:35.721Z,991.78
2017-09-22T05:14:32.974Z,991.86
2017-09-22T05:15:30.254Z,991.86
2017-09-22T05:16:27.490Z,991.88
2017-09-22T05:17:24.782Z,991.86
2017-09-22T05:18:22.074Z,991.89
2017-09-22T05:19:19.345Z,991.95
2017-09-22T05:20:16.599Z,991.90
2017-09-22T05:21:13.870Z,991.86
2017-09-22T05:22:11.393Z,991.84
2017-09-22T05:23:08.697Z,991.91
2017-09-22T05:24:05.967Z,991.89
2017-09-22T05:25:03.262Z,991.97
2017-09-22T05:26:00.513Z,991.87
2017-09-22T05:26:57.806Z,991.97
2017-09-22T05:27:55.099Z,991.90
2017-09-22T05:28:52.495Z,991.90
2017-09-22T05:29:49.757Z,991.95
2017-09-22T05:30:47.043Z,992.00
2017-09-22T05:31:44.292Z,991.80
2017-09-22T05:32:41.559Z,991.90
2017-09-22T05:33:38.824Z,991.85
2017-09-22T05:34:36.101Z,991.87
2017-09-22T05:35:33.356Z,991.90
2017-09-22T05:36:30.648Z,991.92
2017-09-22T05:37:27.915Z,991.93
2017-09-22T05:38:25.258Z,991.90
2017-09-22T05:39:22.526Z,991.89
2017-09-22T05:40:19.796Z,991.93
2017-09-22T05:41:17.042Z,991.97
2017-09-22T05:42:14.305Z,991.95
2017-09-22T05:43:11.629Z,991.91
2017-09-22T05:44:08.911Z,991.97
2017-09-22T05:45:06.153Z,991.95
2017-09-22T05:46:03.442Z,991.90
2017-09-22T05:47:00.695Z,992.01
2017-09-22T05:47:57.978Z,991.90
2017-09-22T05:48:55.229Z,991.92
2017-09-22T05:49:52.505Z,991.91
2017-09-22T05:50:49.766Z,991.97
2017-09-22T05:51:47.042Z,992.05
2017-09-22T05:52:44.305Z,992.03
2017-09-22T05:53:43.090Z,992.04
2017-09-22T05:54:40.335Z,992.01
2017-09-22T05:55:37.605Z,991.98
2017-09-22T05:56:34.829Z,992.04
2017-09-22T05:57:32.110Z,991.98
2017-09-22T05:58:29.358Z,991.97
2017-09-22T05:59:26.642Z,992.12
2017-09-22T06:00:23.871Z,992.07
2017-09-22T06:01:21.161Z,992.09
2017-09-22T06:02:18.463Z,992.08
2017-09-22T06:03:15.709Z,992.04
2017-09-22T06:04:12.986Z,992.06
2017-09-22T06:05:10.253Z,992.06
2017-09-22T06:06:07.501Z,992.10
2017-09-22T06:07:04.768Z,991.99
2017-09-22T06:08:04.091Z,992.07
2017-09-22T06:09:01.391Z,992.05
2017-09-22T06:09:58.711Z,991.97
2017-09-22T06:10:55.975Z,992.04
2017-09-22T06:11:53.197Z,992.08
2017-09-22T06:12:50.463Z,992.14
2017-09-22T06:13:47.701Z,992.12
2017-09-22T06:14:44.987Z,992.08
2017-09-22T06:15:42.204Z,992.07
2017-09-22T06:16:39.505Z,992.14
2017-09-22T06:17:36.778Z,992.09
2017-09-22T06:18:34.027Z,992.14
2017-09-22T06:19:31.298Z,992.16
2017-09-22T06:20:28.573Z,992.17
2017-09-22T06:21:25.817Z,992.13
2017-09-22T06:22:23.082Z,992.08
2017-09-22T06:23:20.306Z,992.09
2017-09-22T06:24:17.649Z,992.16
2017-09-22T06:25:14.887Z,992.18
2017-09-22T06:26:12.170Z,992.16
2017-09-22T06:27:09.421Z,992.18
2017-09-22T06:28:06.704Z,992.23
2017-09-22T06:29:03.953Z,992.22
2017-09-22T06:30:01.275Z,992.18
2017-09-22T06:30:58.528Z,992.31
2017-09-22T06:31:55.786Z,992.16
2017-09-22T06:32:53.014Z,992.15
2017-09-22T06:33:50.289Z,992.18
2017-09-22T06:34:47.534Z,992.12
2017-09-22T06:35:44.797Z,992.18
2017-09-22T06:36:42.039Z,992.20
2017-09-22T06:37:39.363Z,992.25
2017-09-22T06:38:36.609Z,992.24
2017-09-22T06:39:33.897Z,992.28
2017-09-22T06:40:31.163Z,992.29
2017-09-22T06:41:28.442Z,992.24
2017-09-22T06:42:25.667Z,992.28
2017-09-22T06:43:22.947Z,992.31
2017-09-22T06:44:20.215Z,992.25
2017-09-22T06:45:17.525Z,992.27
2017-09-22T06:46:14.782Z,992.33
2017-09-22T06:47:12.036Z,992.29
2017-09-22T06:48:09.329Z,992.35
2017-09-22T06:49:06.599Z,992.28
2017-09-22T06:50:03.890Z,992.18
2017-09-22T06:51:01.179Z,992.27
2017-09-22T06:51:58.413Z,992.34
2017-09-22T06:52:56.979Z,992.31
2017-09-22T06:53:54.223Z,992.34
2017-09-22T06:54:51.525Z,992.35
2017-09-22T06:55:48.794Z,992.28
2017-09-22T06:56:46.078Z,992.26
2017-09-22T06:57:43.335Z,992.18
2017-09-22T06:58:40.614Z,992.24
2017-09-22T06:59:37.862Z,992.30
2017-09-22T07:00:35.206Z,992.24
2017-09-22T07:01:32.430Z,992.21
2017-09-22T07:02:29.693Z,992.24
2017-09-22T07:03:26.932Z,992.21
2017-09-22T07:04:24.235Z,992.39
2017-09-22T07:05:21.477Z,992.33
2017-09-22T07:06:18.762Z,992.35
2017-09-22T07:07:16.010Z,992.33
2017-09-22T07:08:13.272Z,992.35
2017-09-22T07:09:10.513Z,992.33
2017-09-22T07:10:07.806Z,992.41
2017-09-22T07:11:05.065Z,992.41
2017-09-22T07:12:02.332Z,992.38
2017-09-22T07:12:59.578Z,992.43
2017-09-22T07:13:56.838Z,992.44
2017-09-22T07:14:54.071Z,992.47
2017-09-22T07:15:51.743Z,992.50
2017-09-22T07:16:48.984Z,992.48
2017-09-22T07:17:46.271Z,992.48
2017-09-22T07:18:43.517Z,992.52
2017-09-22T07:19:40.789Z,992.49
2017-09-22T07:20:38.083Z,992.52
2017-09-22T07:21:35.361Z,992.56
2017-09-22T07:22:32.576Z,992.56
2017-09-22T07:23:29.951Z,992.54
2017-09-22T07:24:27.185Z,992.48
2017-09-22T07:25:24.435Z,992.47
2017-09-22T07:26:21.707Z,992.43
2017-09-22T07:27:18.950Z,992.50
2017-09-22T07:28:16.161Z,992.43
2017-09-22T07:29:13.417Z,992.38
2017-09-22T07:30:10.658Z,992.46
2017-09-22T07:31:07.918Z,992.38
2017-09-22T07:32:05.205Z,992.38
2017-09-22T07:33:02.501Z,992.42
2017-09-22T07:33:59.721Z,992.37
2017-09-22T07:34:57.113Z,992.41
2017-09-22T07:35:54.392Z,992.49
2017-09-22T07:36:51.721Z,992.45
2017-09-22T07:37:49.027Z,992.39
2017-09-22T07:38:46.281Z,992.42
2017-09-22T07:39:43.526Z,992.48
2017-09-22T07:40:40.781Z,992.40
2017-09-22T07:41:38.025Z,992.49
2017-09-22T07:42:35.302Z,992.40
2017-09-22T07:43:32.529Z,992.49
2017-09-22T07:44:29.777Z,992.48
2017-09-22T07:45:26.994Z,992.45
2017-09-22T07:46:24.317Z,992.43
2017-09-22T07:47:21.563Z,992.37
2017-09-22T07:48:18.875Z,992.39
2017-09-22T07:49:16.110Z,992.34
2017-09-22T07:50:13.358Z,992.34
2017-09-22T07:51:10.627Z,992.34
2017-09-22T07:52:07.908Z,992.40
2017-09-22T07:53:05.147Z,992.35
2017-09-22T07:54:02.447Z,992.39
2017-09-22T07:54:59.669Z,992.40
2017-09-22T07:55:56.926Z,992.39
2017-09-22T07:56:54.186Z,992.40
2017-09-22T07:57:51.496Z,992.39
2017-09-22T07:58:48.739Z,992.42
2017-09-22T07:59:46.013Z,992.48
2017-09-22T08:00:43.267Z,992.42
2017-09-22T08:01:40.708Z,992.50
2017-09-22T08:02:37.941Z,992.51
2017-09-22T08:03:35.182Z,992.42
2017-09-22T08:04:32.417Z,992.44
2017-09-22T08:05:29.689Z,992.48
2017-09-22T08:06:26.980Z,992.39
2017-09-22T08:07:24.270Z,992.50
2017-09-22T08:08:21.518Z,992.49
2017-09-22T08:09:18.789Z,992.42
2017-09-22T08:10:16.020Z,992.48
2017-09-22T08:11:13.302Z,992.49
2017-09-22T08:12:10.579Z,992.47
2017-09-22T08:13:07.850Z,992.53
2017-09-22T08:14:05.103Z,992.52
2017-09-22T08:15:02.485Z,992.51
2017-09-22T08:15:59.741Z,992.59
2017-09-22T08:16:57.200Z,992.55
2017-09-22T08:17:54.441Z,992.53
2017-09-22T08:18:51.710Z,992.48
2017-09-22T08:19:48.976Z,992.52
2017-09-22T08:20:46.365Z,992.53
2017-09-22T08:21:43.590Z,992.47
2017-09-22T08:22:40.880Z,992.51
2017-09-22T08:23:38.118Z,992.48
2017-09-22T08:24:35.469Z,992.48
2017-09-22T08:25:32.714Z,992.45
2017-09-22T08:26:29.994Z,992.46
2017-09-22T08:27:27.254Z,992.56
2017-09-22T08:28:24.545Z,992.49
2017-09-22T08:29:21.781Z,992.51
2017-09-22T08:30:19.070Z,992.56
2017-09-22T08:31:16.337Z,992.59
2017-09-22T08:32:13.614Z,992.56
2017-09-22T08:33:10.895Z,992.53
2017-09-22T08:34:08.175Z,992.47
2017-09-22T08:35:05.461Z,992.44
2017-09-22T08:36:02.769Z,992.49
2017-09-22T08:37:00.040Z,992.41
2017-09-22T08:37:57.321Z,992.48
2017-09-22T08:38:54.592Z,992.48
2017-09-22T08:39:51.865Z,992.48
2017-09-22T08:40:49.178Z,992.45
2017-09-22T08:41:46.456Z,992.49
2017-09-22T08:42:43.721Z,992.52
2017-09-22T08:43:41.142Z,992.47
2017-09-22T08:44:38.382Z,992.46
2017-09-22T08:45:35.687Z,992.50
2017-09-22T08:46:32.925Z,992.47
2017-09-22T08:47:30.495Z,992.47
2017-09-22T08:48:27.760Z,992.46
2017-09-22T08:49:25.028Z,992.53
2017-09-22T08:50:22.366Z,992.51
2017-09-22T08:51:19.651Z,992.48
2017-09-22T08:52:16.910Z,992.56
2017-09-22T08:53:14.194Z,992.58
2017-09-22T08:54:11.463Z,992.52
2017-09-22T08:55:08.741Z,992.62
2017-09-22T08:56:06.035Z,992.60
2017-09-22T08:57:03.315Z,992.65
2017-09-22T08:58:00.616Z,992.63
2017-09-22T08:58:57.887Z,992.70
2017-09-22T08:59:55.188Z,992.60
2017-09-22T09:00:52.480Z,992.56
2017-09-22T09:01:49.705Z,992.67
2017-09-22T09:02:47.104Z,992.56
2017-09-22T09:03:44.420Z,992.56
2017-09-22T09:04:41.738Z,992.50
2017-09-22T09:05:38.992Z,992.64
2017-09-22T09:06:36.257Z,992.59
2017-09-22T09:07:33.497Z,992.53
2017-09-22T09:08:30.814Z,992.61
2017-09-22T09:09:28.103Z,992.59
2017-09-22T09:10:25.369Z,992.57
2017-09-22T09:11:22.614Z,992.55
2017-09-22T09:12:19.878Z,992.59
2017-09-22T09:13:17.134Z,992.60
2017-09-22T09:14:14.440Z,992.49
2017-09-22T09:15:11.692Z,992.67
2017-09-22T09:16:09.009Z,992.58
2017-09-22T09:17:06.242Z,992.58
2017-09-22T09:18:03.524Z,992.59
2017-09-22T09:19:00.851Z,992.58
2017-09-22T09:19:58.109Z,992.63
2017-09-22T09:20:55.363Z,992.56
2017-09-22T09:21:52.625Z,992.53
2017-09-22T09:22:49.864Z,992.59
2017-09-22T09:23:47.138Z,992.57
2017-09-22T09:24:44.365Z,992.61
2017-09-22T09:25:41.649Z,992.56
2017-09-22T09:26:38.882Z,992.58
2017-09-22T09:27:36.169Z,992.52
2017-09-22T09:28:33.409Z,992.48
2017-09-22T09:29:30.814Z,992.54
2017-09-22T09:30:28.066Z,992.44
2017-09-22T09:31:25.327Z,992.43
2017-09-22T09:32:22.546Z,992.48
2017-09-22T09:33:19.821Z,992.47
2017-09-22T09:34:17.061Z,992.44
2017-09-22T09:35:14.331Z,992.42
2017-09-22T09:36:11.618Z,992.41
2017-09-22T09:37:08.898Z,992.55
2017-09-22T09:38:06.166Z,992.42
2017-09-22T09:39:03.458Z,992.46
2017-09-22T09:40:00.708Z,992.45
2017-09-22T09:40:57.974Z,992.47
2017-09-22T09:41:55.235Z,992.43
2017-09-22T09:42:52.516Z,992.42
2017-09-22T09:43:49.766Z,992.42
2017-09-22T09:44:47.050Z,992.49
2017-09-22T09:45:44.289Z,992.51
2017-09-22T09:46:41.941Z,992.49
2017-09-22T09:47:39.201Z,992.54
2017-09-22T09:48:36.466Z,992.49
2017-09-22T09:49:33.759Z,992.45
2017-09-22T09:50:31.025Z,992.46
2017-09-22T09:51:28.257Z,992.38
2017-09-22T09:52:25.550Z,992.48
2017-09-22T09:53:22.813Z,992.46
2017-09-22T09:54:20.095Z,992.43
2017-09-22T09:55:17.368Z,992.46
2017-09-22T09:56:14.632Z,992.42
2017-09-22T09:57:11.887Z,992.47
2017-09-22T09:58:09.162Z,992.41
2017-09-22T09:59:06.509Z,992.44
2017-09-22T10:00:03.803Z,992.48
2017-09-22T10:01:01.032Z,992.48
2017-09-22T10:01:58.311Z,992.45
2017-09-22T10:02:55.529Z,992.44
2017-09-22T10:03:52.819Z,992.41
2017-09-22T10:04:50.097Z,992.36
2017-09-22T10:05:47.443Z,992.41
2017-09-22T10:06:44.703Z,992.49
2017-09-22T10:07:42.021Z,992.41
2017-09-22T10:08:39.258Z,992.48
2017-09-22T10:09:36.508Z,992.47
2017-09-22T10:10:33.782Z,992.46
2017-09-22T10:11:31.046Z,992.38
2017-09-22T10:12:28.301Z,992.41
2017-09-22T10:13:25.582Z,992.50
2017-09-22T10:14:22.825Z,992.35
2017-09-22T10:15:20.125Z,992.42
2017-09-22T10:16:17.370Z,992.35
2017-09-22T10:17:14.652Z,992.38
2017-09-22T10:18:11.909Z,992.38
2017-09-22T10:19:09.171Z,992.36
2017-09-22T10:20:06.521Z,992.34
2017-09-22T10:21:03.774Z,992.35
2017-09-22T10:22:01.027Z,992.33
2017-09-22T10:22:58.301Z,992.29
2017-09-22T10:23:55.542Z,992.36
2017-09-22T10:24:52.878Z,992.34
2017-09-22T10:25:50.128Z,992.26
2017-09-22T10:26:47.386Z,992.30
2017-09-22T10:27:44.618Z,992.32
2017-09-22T10:28:41.948Z,992.28
2017-09-22T10:29:39.194Z,992.30
2017-09-22T10:30:36.483Z,992.35
2017-09-22T10:31:33.780Z,992.33
2017-09-22T10:32:31.058Z,992.24
2017-09-22T10:33:28.301Z,992.32
2017-09-22T10:34:25.571Z,992.33
2017-09-22T10:35:22.845Z,992.36
2017-09-22T10:36:20.163Z,992.29
2017-09-22T10:37:17.409Z,992.35
2017-09-22T10:38:14.690Z,992.26
2017-09-22T10:39:11.946Z,992.40
2017-09-22T10:40:09.227Z,992.26
2017-09-22T10:41:06.483Z,992.30
2017-09-22T10:42:03.745Z,992.35
2017-09-22T10:43:00.982Z,992.39
2017-09-22T10:43:58.261Z,992.29
2017-09-22T10:44:55.497Z,992.34
2017-09-22T10:45:52.805Z,992.37
2017-09-22T10:46:50.078Z,992.38
2017-09-22T10:47:47.353Z,992.34
2017-09-22T10:48:44.602Z,992.38
2017-09-22T10:49:41.926Z,992.39
2017-09-22T10:50:39.163Z,992.33
2017-09-22T10:51:36.459Z,992.29
2017-09-22T10:52:33.706Z,992.34
2017-09-22T10:53:30.966Z,992.34
2017-09-22T10:54:28.205Z,992.37
2017-09-22T10:55:25.502Z,992.37
2017-09-22T10:56:22.773Z,992.35
2017-09-22T10:57:20.102Z,992.36
2017-09-22T10:58:17.362Z,992.36
2017-09-22T10:59:14.628Z,992.39
2017-09-22T11:00:11.862Z,992.41
2017-09-22T11:01:09.152Z,992.37
2017-09-22T11:02:06.814Z,992.34
2017-09-22T11:03:04.094Z,992.37
2017-09-22T11:04:01.354Z,992.34
2017-09-22T11:04:58.632Z,992.37
2017-09-22T11:05:55.886Z,992.30
2017-09-22T11:06:53.166Z,992.31
2017-09-22T11:07:50.402Z,992.34
2017-09-22T11:08:47.779Z,992.34
2017-09-22T11:09:45.047Z,992.37
2017-09-22T11:10:42.327Z,992.32
2017-09-22T11:11:39.603Z,992.30
2017-09-22T11:12:36.875Z,992.27
2017-09-22T11:13:34.095Z,992.32
2017-09-22T11:14:31.402Z,992.27
2017-09-22T11:15:28.645Z,992.28
2017-09-22T11:16:25.951Z,992.24
2017-09-22T11:17:23.173Z,992.26
2017-09-22T11:18:20.449Z,992.25
2017-09-22T11:19:17.678Z,992.28
2017-09-22T11:20:14.933Z,992.22
2017-09-22T11:21:12.165Z,992.28
2017-09-22T11:22:09.470Z,992.25
2017-09-22T11:23:06.749Z,992.26
2017-09-22T11:24:04.035Z,992.27
2017-09-22T11:25:02.112Z,992.27
2017-09-22T11:25:59.406Z,992.27
2017-09-22T11:26:56.686Z,992.26
2017-09-22T11:27:53.969Z,992.28
2017-09-22T11:28:51.198Z,992.32
2017-09-22T11:29:48.462Z,992.32
2017-09-22T11:30:45.710Z,992.28
2017-09-22T11:31:43.005Z,992.33
2017-09-22T11:32:40.261Z,992.32
2017-09-22T11:33:37.558Z,992.32
2017-09-22T11:34:34.862Z,992.30
2017-09-22T11:35:32.164Z,992.36
2017-09-22T11:36:29.452Z,992.33
2017-09-22T11:37:26.737Z,992.27
2017-09-22T11:38:24.009Z,992.30
2017-09-22T11:39:21.290Z,992.23
2017-09-22T11:40:18.550Z,992.24
2017-09-22T11:41:15.869Z,992.28
2017-09-22T11:42:13.157Z,992.26
2017-09-22T11:43:10.440Z,992.26
2017-09-22T11:44:07.729Z,992.25
2017-09-22T11:45:04.994Z,992.25
2017-09-22T11:46:02.228Z,992.18
2017-09-22T11:46:59.505Z,992.23
2017-09-22T11:47:56.762Z,992.27
2017-09-22T11:48:54.002Z,992.18
2017-09-22T11:49:51.245Z,992.25
2017-09-22T11:50:48.541Z,992.33
2017-09-22T11:51:45.774Z,992.24
2017-09-22T11:52:43.059Z,992.21
2017-09-22T11:53:40.312Z,992.21
2017-09-22T11:54:37.579Z,992.31
2017-09-22T11:55:34.818Z,992.24